Time;durP1;ratioP1;P1;durP2;ratioP2;P2;SDS_P1;SDS_P2;PMS_P1;PMS_P2;Temp;Humidity;BMP_temperature;BMP_pressure;BME280_temperature;BME280_humidity;BME280_pressure;Samples;Min_cycle;Max_cycle;Signal;HPM_P1;HPM_P2
2022/09/09 00:01:14;;;;;;;8.52;2.28;;;18.30;75.30;;;;;;5021758;28;20034;-81
2022/09/09 00:04:10;;;;;;;7.22;2.03;;;18.30;75.30;;;;;;5056942;28;20033;-82
2022/09/09 00:06:46;;;;;;;10.98;2.33;;;18.20;75.60;;;;;;5044709;28;20379;-81
2022/09/09 00:09:20;;;;;;;6.75;2.00;;;18.20;75.60;;;;;;5017167;28;20493;-82
2022/09/09 00:12:06;;;;;;;6.68;1.90;;;18.10;75.80;;;;;;5016856;28;20025;-81
2022/09/09 00:14:50;;;;;;;8.10;2.33;;;18.20;75.70;;;;;;5016841;28;20560;-81
2022/09/09 00:17:33;;;;;;;10.63;2.20;;;18.20;75.60;;;;;;4999440;28;20492;-82
2022/09/09 00:20:30;;;;;;;14.18;2.95;;;18.20;75.70;;;;;;5017076;28;20157;-82
2022/09/09 00:23:14;;;;;;;12.25;2.30;;;18.10;75.70;;;;;;5016564;28;20061;-82
2022/09/09 00:26:00;;;;;;;15.85;2.28;;;18.10;76.00;;;;;;5016924;28;20018;-82
2022/09/09 00:28:32;;;;;;;10.65;2.15;;;18.10;76.10;;;;;;5017133;28;20045;-82
2022/09/09 00:31:08;;;;;;;11.20;2.67;;;18.20;76.00;;;;;;5031228;28;20033;-82
2022/09/09 00:33:34;;;;;;;6.70;2.15;;;18.20;75.90;;;;;;5031914;28;20029;-82
2022/09/09 00:36:02;;;;;;;8.25;1.90;;;18.20;75.70;;;;;;5051461;28;20740;-81
2022/09/09 00:38:32;;;;;;;14.20;2.30;;;18.20;75.60;;;;;;5036368;28;20033;-81
2022/09/09 00:41:21;;;;;;;12.55;2.55;;;18.10;75.70;;;;;;5022909;28;20030;-80
2022/09/09 00:43:57;;;;;;;13.88;2.63;;;18.00;76.10;;;;;;4998738;28;20046;-81
2022/09/09 00:46:41;;;;;;;8.73;2.63;;;18.00;76.10;;;;;;5035596;28;20022;-81
2022/09/09 00:49:19;;;;;;;10.60;3.28;;;18.00;76.30;;;;;;5045097;28;20477;-82
2022/09/09 00:52:04;;;;;;;9.35;1.95;;;18.00;76.30;;;;;;5015898;28;20508;-81
2022/09/09 00:54:55;;;;;;;12.57;1.92;;;17.90;76.40;;;;;;5014724;28;20699;-81
2022/09/09 00:57:31;;;;;;;5.47;1.80;;;17.90;76.60;;;;;;5016335;28;20091;-82
2022/09/09 01:00:26;;;;;;;7.45;2.45;;;17.80;76.60;;;;;;4998527;28;20030;-82
2022/09/09 01:03:10;;;;;;;8.48;2.03;;;17.80;76.50;;;;;;5015790;28;20117;-81
2022/09/09 01:05:46;;;;;;;8.18;2.03;;;17.70;77.00;;;;;;5016188;28;20038;-82
2022/09/09 01:08:22;;;;;;;7.15;1.83;;;17.80;76.90;;;;;;5013952;28;20022;-82
2022/09/09 01:10:53;;;;;;;9.52;1.85;;;17.70;76.80;;;;;;5016005;28;20057;-82
2022/09/09 01:13:30;;;;;;;8.18;1.85;;;17.70;76.80;;;;;;5015805;28;20029;-82
2022/09/09 01:15:59;;;;;;;11.57;2.45;;;17.70;76.70;;;;;;5014492;28;20448;-81
2022/09/09 01:18:28;;;;;;;11.73;2.20;;;17.70;76.90;;;;;;5015986;28;20025;-82
2022/09/09 01:21:06;;;;;;;5.38;1.52;;;17.70;76.70;;;;;;4998469;28;20030;-82
2022/09/09 01:24:25;;;;;;;10.63;2.15;;;17.80;76.60;;;;;;5015708;28;20037;-81
2022/09/09 01:26:54;;;;;;;12.18;2.22;;;17.80;76.70;;;;;;4995508;28;20103;-81
2022/09/09 01:29:22;;;;;;;12.02;2.13;;;17.80;76.60;;;;;;5011753;28;20041;-82
2022/09/09 01:32:00;;;;;;;8.10;2.10;;;17.80;76.50;;;;;;5015432;28;20034;-82
2022/09/09 01:34:31;;;;;;;5.00;1.88;;;17.80;76.30;;;;;;5022410;28;20379;-81
2022/09/09 01:37:11;;;;;;;7.63;2.28;;;17.80;76.20;;;;;;5035531;28;20408;-81
2022/09/09 01:39:41;;;;;;;;;;;17.80;76.20;;;;;;5018164;28;20028;-81
2022/09/09 01:42:11;;;;;;;8.60;2.00;;;17.80;76.20;;;;;;5004307;28;19905;-82
2022/09/09 01:44:37;;;;;;;;;;;17.80;76.30;;;;;;5016004;28;20299;-81
2022/09/09 01:47:04;;;;;;;5.63;1.90;;;17.80;76.20;;;;;;5014911;28;19909;-81
2022/09/09 01:53:10;;;;;;;13.00;2.80;;;17.80;76.50;;;;;;5015902;28;20048;-81
2022/09/09 01:55:41;;;;;;;9.95;2.05;;;17.70;76.50;;;;;;5015211;28;20038;-82
2022/09/09 01:58:25;;;;;;;4.30;1.77;;;17.70;76.60;;;;;;4998076;28;20040;-81
2022/09/09 02:01:15;;;;;;;5.35;1.90;;;17.70;76.80;;;;;;5018215;28;20036;-82
2022/09/09 02:03:46;;;;;;;11.10;2.28;;;17.70;76.80;;;;;;5018768;28;20030;-81
2022/09/09 02:06:25;;;;;;;7.93;2.38;;;17.60;77.10;;;;;;5019511;28;20037;-82
2022/09/09 02:08:56;;;;;;;6.00;1.75;;;17.60;77.10;;;;;;5019390;28;20152;-81
2022/09/09 02:11:27;;;;;;;8.30;2.17;;;17.60;77.20;;;;;;5019374;28;20026;-82
2022/09/09 02:14:04;;;;;;;9.25;2.03;;;17.60;77.10;;;;;;5019424;28;20026;-82
2022/09/09 02:16:33;;;;;;;7.15;1.73;;;17.60;77.20;;;;;;5016939;28;20489;-81
2022/09/09 02:19:35;;;;;;;;;;;;;;;;;;;;;
2022/09/09 02:22:02;;;;;;;8.82;2.40;;;17.60;77.50;;;;;;5018607;28;20022;-82
2022/09/09 02:24:29;;;;;;;8.93;2.08;;;17.50;77.80;;;;;;5019084;28;20045;-83
2022/09/09 02:26:57;;;;;;;7.80;1.77;;;17.50;77.70;;;;;;5001089;28;20488;-81
2022/09/09 02:29:27;;;;;;;5.15;1.65;;;17.60;77.60;;;;;;5018887;28;20053;-82
2022/09/09 02:31:58;;;;;;;9.93;1.95;;;17.70;77.50;;;;;;5018882;28;20026;-82
2022/09/09 02:34:24;;;;;;;9.95;1.92;;;17.70;77.40;;;;;;5016435;28;20057;-82
2022/09/09 02:36:53;;;;;;;9.35;2.33;;;17.70;77.30;;;;;;5018818;28;20029;-82
2022/09/09 02:39:19;;;;;;;12.02;2.08;;;17.70;77.30;;;;;;5018343;28;20152;-82
2022/09/09 02:41:57;;;;;;;7.95;1.85;;;17.70;77.20;;;;;;5018576;28;20062;-81
2022/09/09 02:44:22;;;;;;;6.47;1.60;;;17.70;77.20;;;;;;5017179;28;20087;-81
2022/09/09 02:47:06;;;;;;;4.40;1.90;;;17.70;77.30;;;;;;5017213;28;20030;-82
2022/09/09 02:49:55;;;;;;;9.82;2.65;;;17.70;77.40;;;;;;5018566;28;20109;-81
2022/09/09 02:52:31;;;;;;;9.75;1.70;;;17.70;77.40;;;;;;5018375;28;20041;-82
2022/09/09 02:55:01;;;;;;;11.23;2.17;;;17.70;77.40;;;;;;5018594;28;20026;-81
2022/09/09 02:57:30;;;;;;;6.93;1.65;;;17.70;77.20;;;;;;5017929;28;20060;-81
2022/09/09 02:59:58;;;;;;;9.38;1.67;;;17.70;77.30;;;;;;5018317;28;20033;-81
2022/09/09 03:02:25;;;;;;;6.75;1.90;;;17.70;77.10;;;;;;5018269;28;20037;-81
2022/09/09 03:04:51;;;;;;;7.07;1.30;;;17.70;77.00;;;;;;5033543;28;20088;-82
2022/09/09 03:07:18;;;;;;;6.13;2.30;;;17.70;77.00;;;;;;5017138;28;20396;-82
2022/09/09 03:09:45;;;;;;;4.78;1.70;;;17.70;76.90;;;;;;5018260;28;20591;-82
2022/09/09 03:12:11;;;;;;;3.40;1.27;;;17.70;76.90;;;;;;5017952;28;20120;-82
2022/09/09 03:14:37;;;;;;;7.38;1.90;;;17.70;76.80;;;;;;5000268;28;20061;-82
2022/09/09 03:17:05;;;;;;;5.55;1.73;;;17.80;76.70;;;;;;5018025;28;20037;-82
2022/09/09 03:19:31;;;;;;;6.05;1.73;;;17.80;76.50;;;;;;5017836;28;20038;-82
2022/09/09 03:21:57;;;;;;;5.20;1.88;;;17.80;76.30;;;;;;5000410;28;20026;-82
2022/09/09 03:24:24;;;;;;;7.15;1.67;;;17.80;76.40;;;;;;5017823;28;20026;-82
2022/09/09 03:26:50;;;;;;;6.10;1.67;;;17.70;76.50;;;;;;5016662;28;20137;-82
2022/09/09 03:29:17;;;;;;;6.45;2.20;;;17.70;76.70;;;;;;5017866;28;20539;-82
2022/09/09 03:31:44;;;;;;;5.63;1.70;;;17.70;76.70;;;;;;5017677;28;20022;-81
2022/09/09 03:34:10;;;;;;;7.15;1.60;;;17.70;76.80;;;;;;5021742;28;20412;-82
2022/09/09 03:36:36;;;;;;;6.03;1.45;;;17.70;76.80;;;;;;5037510;28;20607;-82
2022/09/09 03:39:03;;;;;;;5.65;1.30;;;17.60;76.80;;;;;;5015974;28;20038;-82
2022/09/09 03:41:29;;;;;;;4.40;1.45;;;17.70;76.80;;;;;;5017719;28;20030;-82
2022/09/09 03:43:54;;;;;;;9.77;1.90;;;17.70;76.70;;;;;;5018138;28;20059;-82
2022/09/09 03:46:22;;;;;;;7.22;1.98;;;17.70;76.70;;;;;;5027636;28;20100;-82
2022/09/09 03:48:48;;;;;;;6.60;1.77;;;17.60;76.50;;;;;;5033091;28;20049;-82
2022/09/09 03:51:14;;;;;;;3.58;1.40;;;17.60;76.80;;;;;;5017286;28;20481;-81
2022/09/09 03:53:39;;;;;;;7.28;1.75;;;17.60;76.60;;;;;;5015465;28;20026;-81
2022/09/09 03:56:06;;;;;;;4.90;1.35;;;17.60;76.90;;;;;;5017352;28;20026;-81
2022/09/09 03:58:37;;;;;;;6.00;1.60;;;17.50;76.80;;;;;;4999704;28;20044;-82
2022/09/09 04:01:13;;;;;;;4.65;1.45;;;17.50;77.30;;;;;;5017138;28;20033;-81
2022/09/09 04:03:39;;;;;;;3.90;1.35;;;17.60;77.10;;;;;;4999591;28;20034;-81
2022/09/09 04:06:09;;;;;;;7.55;1.55;;;17.60;77.00;;;;;;5017308;28;20113;-82
2022/09/09 04:08:35;;;;;;;3.78;1.60;;;17.60;77.00;;;;;;5015946;28;20021;-82
2022/09/09 04:11:06;;;;;;;4.90;2.45;;;17.70;76.80;;;;;;4998637;28;20121;-81
2022/09/09 04:13:34;;;;;;;6.03;1.20;;;17.70;76.70;;;;;;5017222;28;20089;-82
2022/09/09 04:16:03;;;;;;;7.93;1.42;;;17.70;76.90;;;;;;5014678;28;20045;-82
2022/09/09 04:18:29;;;;;;;8.15;1.70;;;17.70;76.80;;;;;;5016621;28;20058;-82
2022/09/09 04:20:57;;;;;;;5.03;1.38;;;17.60;76.80;;;;;;5017023;28;20025;-82
2022/09/09 04:23:24;;;;;;;7.93;1.60;;;17.70;76.70;;;;;;5015737;28;20030;-83
2022/09/09 04:25:54;;;;;;;4.25;1.63;;;17.60;76.90;;;;;;4999152;28;20022;-79
2022/09/09 04:28:20;;;;;;;;;;;17.60;76.80;;;;;;5016967;28;20026;-80
2022/09/09 04:30:48;;;;;;;6.53;1.38;;;17.50;77.00;;;;;;5018611;28;20284;-83
2022/09/09 04:33:15;;;;;;;8.52;2.13;;;17.60;77.00;;;;;;5016515;28;20026;-81
2022/09/09 04:35:48;;;;;;;5.68;1.40;;;17.60;77.10;;;;;;5033469;28;20040;-82
2022/09/09 04:38:15;;;;;;;5.30;1.33;;;17.60;77.10;;;;;;5013911;28;20037;-82
2022/09/09 04:40:47;;;;;;;3.25;1.67;;;17.60;77.30;;;;;;5016491;28;20076;-81
2022/09/09 04:43:14;;;;;;;4.07;1.42;;;17.60;77.20;;;;;;5014995;28;20050;-80
2022/09/09 04:45:40;;;;;;;4.30;1.55;;;17.60;77.30;;;;;;5014084;28;20084;-79
2022/09/09 04:48:07;;;;;;;8.32;1.60;;;17.60;77.00;;;;;;5014953;28;20032;-79
2022/09/09 04:50:33;;;;;;;4.05;1.80;;;17.50;77.40;;;;;;5014292;28;20036;-78
2022/09/09 04:53:04;;;;;;;5.50;1.58;;;17.50;77.40;;;;;;4996341;28;20029;-78
2022/09/09 04:55:31;;;;;;;9.15;1.70;;;17.50;77.40;;;;;;4997029;28;20413;-78
2022/09/09 04:57:57;;;;;;;11.23;2.17;;;17.50;77.30;;;;;;5014706;28;20022;-78
2022/09/09 05:00:23;;;;;;;2.17;1.38;;;17.50;77.30;;;;;;5014436;28;20079;-78
2022/09/09 05:02:49;;;;;;;9.27;1.92;;;17.50;77.40;;;;;;5023356;28;20009;-78
2022/09/09 05:05:14;;;;;;;5.60;1.67;;;17.50;77.60;;;;;;5036938;28;20037;-78
2022/09/09 05:07:41;;;;;;;5.80;1.60;;;17.50;77.50;;;;;;5035020;28;20030;-81
2022/09/09 05:10:07;;;;;;;9.18;1.73;;;17.50;77.40;;;;;;5013842;28;20474;-81
2022/09/09 05:12:33;;;;;;;4.15;1.17;;;17.50;77.40;;;;;;5022060;28;20493;-82
2022/09/09 05:14:59;;;;;;;7.00;1.83;;;17.40;77.50;;;;;;5027392;28;20052;-81
2022/09/09 05:17:24;;;;;;;6.25;1.42;;;17.40;77.60;;;;;;5035771;28;20029;-81
2022/09/09 05:19:50;;;;;;;6.72;1.52;;;17.50;77.40;;;;;;5031500;28;20094;-82
2022/09/09 05:22:23;;;;;;;8.68;2.55;;;17.50;77.40;;;;;;5000276;28;20033;-81
2022/09/09 05:24:50;;;;;;;4.03;2.25;;;17.40;77.50;;;;;;5030157;28;20037;-82
2022/09/09 05:27:29;;;;;;;;;;;;;;;;;;;;;
2022/09/09 05:29:56;;;;;;;6.32;1.90;;;17.30;77.80;;;;;;5013337;28;20094;-81
2022/09/09 05:32:22;;;;;;;4.05;1.60;;;17.30;77.70;;;;;;4997958;28;20029;-81
2022/09/09 05:34:47;;;;;;;6.20;1.50;;;17.30;77.70;;;;;;5024471;28;20029;-82
2022/09/09 05:37:13;;;;;;;11.65;1.83;;;17.30;77.70;;;;;;5035792;28;20025;-82
2022/09/09 05:39:39;;;;;;;9.18;1.98;;;17.40;77.60;;;;;;5027388;28;20030;-82
2022/09/09 05:42:05;;;;;;;5.72;1.90;;;17.30;77.90;;;;;;4997913;28;20075;-82
2022/09/09 05:44:38;;;;;;;8.05;1.67;;;17.30;77.90;;;;;;5013019;28;20482;-82
2022/09/09 05:47:05;;;;;;;5.53;1.80;;;17.30;77.80;;;;;;4995738;28;20061;-82
2022/09/09 05:49:31;;;;;;;7.13;2.05;;;17.30;77.90;;;;;;4979066;28;20030;-81
2022/09/09 05:51:57;;;;;;;4.70;1.67;;;17.30;78.00;;;;;;5001218;28;20076;-82
2022/09/09 05:54:23;;;;;;;5.28;1.25;;;17.30;77.90;;;;;;5015430;28;20026;-82
2022/09/09 05:56:50;;;;;;;9.88;1.92;;;17.30;77.90;;;;;;4992251;28;20046;-82
2022/09/09 05:59:16;;;;;;;5.85;2.70;;;17.30;78.00;;;;;;4996121;28;20045;-82
2022/09/09 06:01:42;;;;;;;6.10;1.73;;;17.30;78.00;;;;;;4996257;28;20034;-81
2022/09/09 06:04:08;;;;;;;20.38;2.67;;;17.30;78.00;;;;;;4996352;28;20029;-82
2022/09/09 06:06:36;;;;;;;5.28;2.05;;;17.30;77.90;;;;;;4996099;28;20026;-82
2022/09/09 06:09:09;;;;;;;7.45;1.60;;;17.30;77.90;;;;;;4996125;28;20030;-81
2022/09/09 06:11:37;;;;;;;8.02;2.05;;;17.30;78.10;;;;;;5008712;28;20025;-81
2022/09/09 06:14:03;;;;;;;5.13;1.35;;;17.30;78.10;;;;;;5012657;28;20497;-81
2022/09/09 06:16:30;;;;;;;6.28;1.70;;;17.30;78.10;;;;;;4995933;28;20113;-81
2022/09/09 06:18:57;;;;;;;6.07;1.67;;;17.30;78.10;;;;;;4995921;28;20060;-81
2022/09/09 06:21:32;;;;;;;5.93;2.22;;;17.30;78.00;;;;;;4996375;28;20034;-82
2022/09/09 06:23:59;;;;;;;9.75;1.98;;;17.30;78.00;;;;;;4994748;28;20458;-81
2022/09/09 06:26:35;;;;;;;13.70;2.35;;;17.30;78.00;;;;;;4996066;28;20030;-81
2022/09/09 06:29:03;;;;;;;8.93;1.95;;;17.30;77.90;;;;;;4995703;28;20027;-81
2022/09/09 06:31:31;;;;;;;7.28;2.10;;;17.30;78.00;;;;;;4994447;28;20031;-81
2022/09/09 06:33:58;;;;;;;4.80;1.65;;;17.30;77.90;;;;;;4998672;28;20033;-82
2022/09/09 06:36:25;;;;;;;7.57;1.45;;;17.40;77.90;;;;;;4997793;28;20038;-82
2022/09/09 06:38:51;;;;;;;10.88;2.08;;;17.40;77.90;;;;;;4987946;28;20030;-81
2022/09/09 06:41:21;;;;;;;4.05;1.77;;;17.50;77.80;;;;;;4995767;28;20117;-82
2022/09/09 06:43:47;;;;;;;;;;;17.40;77.50;;;;;;4996617;28;20053;-81
2022/09/09 06:46:16;;;;;;;5.47;2.10;;;17.60;77.50;;;;;;4994296;28;19909;-82
2022/09/09 06:48:44;;;;;;;6.95;1.92;;;17.70;77.10;;;;;;4999372;28;20030;-82
2022/09/09 06:51:13;;;;;;;7.82;2.10;;;17.80;76.90;;;;;;4999152;28;20027;-82
2022/09/09 06:53:41;;;;;;;13.35;2.13;;;17.80;76.90;;;;;;4999308;28;20045;-81
2022/09/09 06:56:29;;;;;;;9.70;1.85;;;17.80;76.70;;;;;;4999284;28;20476;-81
2022/09/09 06:58:58;;;;;;;10.57;2.33;;;17.80;76.80;;;;;;5014425;28;20041;-81
2022/09/09 07:01:26;;;;;;;10.90;3.03;;;17.80;76.80;;;;;;4999659;28;20090;-81
2022/09/09 07:03:55;;;;;;;12.07;2.50;;;17.70;76.90;;;;;;4997855;28;20425;-82
2022/09/09 07:06:31;;;;;;;11.95;2.47;;;17.80;76.90;;;;;;4999036;28;20105;-81
2022/09/09 07:09:03;;;;;;;8.63;2.00;;;17.80;76.70;;;;;;4998956;28;20048;-82
2022/09/09 07:11:32;;;;;;;6.97;2.03;;;18.00;76.50;;;;;;5011113;28;20022;-82
2022/09/09 07:13:59;;;;;;;6.07;1.70;;;18.10;76.30;;;;;;5014597;28;20548;-81
2022/09/09 07:16:27;;;;;;;8.43;2.00;;;18.20;76.20;;;;;;4998775;28;20037;-82
2022/09/09 07:18:57;;;;;;;11.80;1.98;;;18.40;75.70;;;;;;4998668;28;20561;-81
2022/09/09 07:21:24;;;;;;;;;;;18.60;75.20;;;;;;4999614;28;20042;-81
2022/09/09 07:23:50;;;;;;;7.78;1.80;;;18.80;74.50;;;;;;4998536;28;19968;-81
2022/09/09 07:26:21;;;;;;;4.57;1.50;;;18.90;74.30;;;;;;4998673;28;20034;-81
2022/09/09 07:28:47;;;;;;;6.63;2.22;;;18.90;73.90;;;;;;4999018;28;20015;-82
2022/09/09 07:31:20;;;;;;;7.00;2.00;;;18.80;73.90;;;;;;4998407;28;20056;-81
2022/09/09 07:33:47;;;;;;;5.20;1.88;;;18.90;73.80;;;;;;4999616;28;20057;-81
2022/09/09 07:36:21;;;;;;;7.88;1.75;;;19.00;73.70;;;;;;5018375;28;20026;-81
2022/09/09 07:38:52;;;;;;;10.32;2.33;;;19.00;73.60;;;;;;5012606;28;20030;-81
2022/09/09 07:41:24;;;;;;;5.70;1.50;;;19.20;73.40;;;;;;4997373;28;20041;-81
2022/09/09 07:43:50;;;;;;;8.57;1.75;;;19.30;73.60;;;;;;4998877;28;20046;-80
2022/09/09 07:46:21;;;;;;;6.20;1.88;;;19.10;73.00;;;;;;4998329;28;20023;-81
2022/09/09 07:48:52;;;;;;;8.15;1.75;;;19.10;73.80;;;;;;4997014;28;20113;-81
2022/09/09 07:51:22;;;;;;;5.43;1.88;;;19.00;74.20;;;;;;4996679;28;20077;-81
2022/09/09 07:53:51;;;;;;;7.57;1.80;;;18.90;74.20;;;;;;5005428;28;20449;-81
2022/09/09 07:56:18;;;;;;;7.90;1.33;;;19.00;74.70;;;;;;5017734;28;20061;-81
2022/09/09 07:58:48;;;;;;;5.18;1.35;;;18.90;74.40;;;;;;4998432;28;20405;-81
2022/09/09 08:01:22;;;;;;;4.73;1.43;;;18.90;73.80;;;;;;4998016;28;20078;-80
2022/09/09 08:03:54;;;;;;;5.28;1.20;;;18.90;73.90;;;;;;4998076;28;20278;-81
2022/09/09 08:06:20;;;;;;;5.72;1.40;;;19.00;73.50;;;;;;4998093;28;20014;-81
2022/09/09 08:08:50;;;;;;;7.32;1.90;;;19.40;73.10;;;;;;4997877;28;20101;-81
2022/09/09 08:11:16;;;;;;;3.92;1.15;;;19.70;72.20;;;;;;5007545;28;20018;-81
2022/09/09 08:13:43;;;;;;;5.05;1.75;;;19.80;70.40;;;;;;5010880;28;20074;-81
2022/09/09 08:16:12;;;;;;;5.35;1.30;;;20.10;69.80;;;;;;4997614;28;20041;-81
2022/09/09 08:18:39;;;;;;;9.90;1.93;;;20.40;69.30;;;;;;4997954;28;20088;-81
2022/09/09 08:21:13;;;;;;;6.82;1.45;;;20.70;68.70;;;;;;4995758;28;20295;-81
2022/09/09 08:23:41;;;;;;;6.15;1.92;;;20.70;67.90;;;;;;4997608;28;20107;-81
2022/09/09 08:26:34;;;;;;;6.10;1.35;;;20.50;68.30;;;;;;4997881;28;20105;-81
2022/09/09 08:29:01;;;;;;;7.88;1.65;;;20.40;68.30;;;;;;4997916;28;20019;-78
2022/09/09 08:31:30;;;;;;;6.72;1.70;;;20.30;68.50;;;;;;4997355;28;20022;-82
2022/09/09 08:33:59;;;;;;;8.65;1.20;;;20.10;69.10;;;;;;5000665;28;20018;-81
2022/09/09 08:36:27;;;;;;;4.78;1.65;;;20.00;69.40;;;;;;4999278;28;20481;-81
2022/09/09 08:38:54;;;;;;;7.43;1.40;;;19.90;69.40;;;;;;5016989;28;20109;-81
2022/09/09 08:42:09;;;;;;;5.57;1.33;;;19.90;69.40;;;;;;5016839;28;20029;-82
2022/09/09 08:44:35;;;;;;;5.85;1.42;;;19.90;69.60;;;;;;4979733;28;20102;-80
2022/09/09 08:47:22;;;;;;;10.95;1.80;;;20.10;69.30;;;;;;4997760;28;20089;-81
2022/09/09 08:50:11;;;;;;;9.02;1.85;;;20.30;69.10;;;;;;4997200;28;20030;-81
2022/09/09 08:53:08;;;;;;;6.03;2.03;;;20.30;68.90;;;;;;5012671;28;20100;-81
2022/09/09 08:55:52;;;;;;;4.47;1.10;;;20.30;68.70;;;;;;4997435;28;20027;-81
2022/09/09 08:58:20;;;;;;;6.88;1.33;;;20.30;68.50;;;;;;4995929;28;20030;-81
2022/09/09 09:01:01;;;;;;;6.65;1.50;;;20.50;68.50;;;;;;4997314;28;20401;-81
2022/09/09 09:03:39;;;;;;;7.95;1.67;;;20.50;68.10;;;;;;4996762;28;20034;-82
2022/09/09 09:06:13;;;;;;;6.45;2.17;;;20.50;68.00;;;;;;5011803;28;20018;-79
2022/09/09 09:08:53;;;;;;;5.65;1.15;;;20.50;67.60;;;;;;4996630;28;20093;-81
2022/09/09 09:11:19;;;;;;;7.22;6.60;;;20.70;67.70;;;;;;5006726;28;20022;-78
2022/09/09 09:14:03;;;;;;;5.10;1.25;;;21.30;67.00;;;;;;5001286;28;20456;-78
2022/09/09 09:16:35;;;;;;;6.88;1.33;;;21.30;66.40;;;;;;5011904;28;20061;-79
2022/09/09 09:19:01;;;;;;;9.40;1.50;;;21.50;65.50;;;;;;4996547;28;20109;-79
2022/09/09 09:21:54;;;;;;;7.07;1.10;;;21.60;64.80;;;;;;4996791;28;20018;-79
2022/09/09 09:24:57;;;;;;;8.00;1.27;;;21.50;65.30;;;;;;5011859;28;20030;-82
2022/09/09 09:27:35;;;;;;;3.53;1.20;;;21.20;66.00;;;;;;4976160;28;20042;-81
2022/09/09 09:30:17;;;;;;;5.72;1.38;;;21.20;66.00;;;;;;5002809;28;20018;-81
2022/09/09 09:32:56;;;;;;;7.03;1.55;;;21.20;66.20;;;;;;4990716;28;20571;-81
2022/09/09 09:35:21;;;;;;;5.32;1.20;;;21.00;66.10;;;;;;5016210;28;20029;-80
2022/09/09 09:37:48;;;;;;;3.10;1.20;;;21.20;66.20;;;;;;5013364;28;20033;-81
2022/09/09 09:40:15;;;;;;;4.18;1.63;;;21.40;65.60;;;;;;4996254;28;20034;-80
2022/09/09 09:42:56;;;;;;;5.60;1.42;;;21.60;65.40;;;;;;4996906;28;20057;-80
2022/09/09 09:45:33;;;;;;;7.10;1.30;;;22.00;64.30;;;;;;4995074;28;20033;-80
2022/09/09 09:48:02;;;;;;;5.60;1.58;;;22.50;63.80;;;;;;5011185;28;20026;-81
2022/09/09 09:50:28;;;;;;;8.90;1.48;;;22.90;61.40;;;;;;4996601;28;20122;-81
2022/09/09 09:53:00;;;;;;;2.95;1.02;;;23.30;60.70;;;;;;4996204;28;20058;-80
2022/09/09 09:55:29;;;;;;;7.80;1.73;;;23.90;57.50;;;;;;5000695;28;20060;-80
2022/09/09 09:58:01;;;;;;;4.97;1.20;;;24.60;57.40;;;;;;5015274;28;20390;-81
2022/09/09 10:00:27;;;;;;;6.50;1.40;;;25.30;55.40;;;;;;4996047;28;20038;-81
2022/09/09 10:02:53;;;;;;;6.43;1.10;;;24.60;55.20;;;;;;4995865;28;20040;-80
2022/09/09 10:05:25;;;;;;;6.28;1.40;;;24.00;55.80;;;;;;4996466;28;20037;-80
2022/09/09 10:08:11;;;;;;;4.70;1.27;;;23.60;57.40;;;;;;4996144;28;20022;-81
2022/09/09 10:11:02;;;;;;;3.53;0.90;;;24.40;56.70;;;;;;5000979;28;20022;-80
2022/09/09 10:13:42;;;;;;;6.43;1.33;;;25.10;55.30;;;;;;4998083;28;20026;-80
2022/09/09 10:16:18;;;;;;;5.88;1.20;;;25.30;54.00;;;;;;5015441;28;20018;-81
2022/09/09 10:19:00;;;;;;;8.57;1.20;;;25.20;54.60;;;;;;4997126;28;20076;-80
2022/09/09 10:21:47;;;;;;;8.13;1.45;;;24.40;53.90;;;;;;4998089;28;20019;-80
2022/09/09 10:24:25;;;;;;;3.92;1.08;;;23.80;55.40;;;;;;4999902;28;20038;-81
2022/09/09 10:26:58;;;;;;;6.13;1.20;;;23.50;57.50;;;;;;5015572;28;20109;-80
2022/09/09 10:29:44;;;;;;;8.02;1.30;;;23.40;57.90;;;;;;5000171;28;20148;-80
2022/09/09 10:32:32;;;;;;;3.80;1.10;;;23.20;58.30;;;;;;4999530;28;20030;-80
2022/09/09 10:35:17;;;;;;;7.13;1.13;;;23.00;59.00;;;;;;5009678;28;20036;-80
2022/09/09 10:38:17;;;;;;;5.93;1.13;;;22.80;58.70;;;;;;5005637;28;20113;-81
2022/09/09 10:40:56;;;;;;;4.72;0.98;;;22.70;60.10;;;;;;5014819;28;20418;-80
2022/09/09 10:43:30;;;;;;;7.68;1.00;;;22.70;59.80;;;;;;4999715;28;20046;-80
2022/09/09 10:46:09;;;;;;;5.22;1.00;;;22.60;59.80;;;;;;4999420;28;20030;-82
2022/09/09 10:49:04;;;;;;;4.78;1.20;;;22.50;60.10;;;;;;5017791;28;20024;-79
2022/09/09 10:51:50;;;;;;;5.18;1.77;;;22.60;59.90;;;;;;5009127;28;20057;-83
2022/09/09 10:54:16;;;;;;;4.72;1.00;;;22.70;60.10;;;;;;5014642;28;20512;-85
2022/09/09 10:56:49;;;;;;;4.40;0.90;;;22.80;60.40;;;;;;5014712;28;20216;-81
2022/09/09 10:59:26;;;;;;;6.65;1.17;;;22.80;59.60;;;;;;4999721;28;20105;-83
2022/09/09 11:01:59;;;;;;;5.20;1.95;;;23.00;59.20;;;;;;4999683;28;20030;-93
2022/09/09 11:04:35;;;;;;;2.50;0.70;;;23.10;59.80;;;;;;4998369;28;20034;-85
2022/09/09 11:07:05;;;;;;;2.97;0.93;;;23.10;60.10;;;;;;4999347;28;20106;-86
2022/09/09 11:09:38;;;;;;;5.32;1.10;;;22.90;59.40;;;;;;4999374;28;20022;-85
2022/09/09 11:12:10;;;;;;;4.65;0.80;;;22.90;60.10;;;;;;5014382;28;20026;-87
2022/09/09 11:14:50;;;;;;;3.33;0.80;;;22.90;61.40;;;;;;5001425;28;20029;-87
2022/09/09 11:17:24;;;;;;;3.83;1.30;;;22.80;61.30;;;;;;5000059;28;20065;-88
2022/09/09 11:19:50;;;;;;;3.58;0.90;;;22.90;61.90;;;;;;5018585;28;20029;-87
2022/09/09 11:22:29;;;;;;;3.95;1.00;;;23.00;61.80;;;;;;5014242;28;20133;-87
2022/09/09 11:25:12;;;;;;;6.40;1.43;;;23.10;62.20;;;;;;4998777;28;20053;-84
2022/09/09 11:28:00;;;;;;;3.08;1.10;;;23.10;60.70;;;;;;4999213;28;20026;-82
2022/09/09 11:30:42;;;;;;;3.42;0.80;;;23.10;60.90;;;;;;4998752;28;20041;-87
2022/09/09 11:33:26;;;;;;;2.90;0.88;;;23.10;60.30;;;;;;4997316;28;20525;-87
2022/09/09 11:36:03;;;;;;;3.00;0.77;;;23.40;60.50;;;;;;5022392;28;20031;-88
2022/09/09 11:38:34;;;;;;;3.45;0.70;;;23.60;59.20;;;;;;5005235;28;20486;-87
2022/09/09 11:41:07;;;;;;;6.00;1.17;;;23.60;58.80;;;;;;5027089;28;20029;-87
2022/09/09 11:43:43;;;;;;;3.50;0.95;;;23.40;58.40;;;;;;5014243;28;20050;-87
2022/09/09 11:46:10;;;;;;;3.80;1.00;;;23.30;59.30;;;;;;5015713;28;20030;-87
2022/09/09 11:48:45;;;;;;;5.13;0.90;;;23.20;58.30;;;;;;4998375;28;20497;-88
2022/09/09 11:51:25;;;;;;;5.20;1.00;;;23.20;57.80;;;;;;5005383;28;20018;-87
2022/09/09 11:53:53;;;;;;;2.95;0.73;;;23.20;58.90;;;;;;5013743;28;20065;-85
2022/09/09 11:56:29;;;;;;;4.15;1.45;;;23.30;58.80;;;;;;4996472;28;20026;-87
2022/09/09 11:59:05;;;;;;;4.95;0.98;;;23.30;57.30;;;;;;5013521;28;20405;-88
2022/09/09 12:01:42;;;;;;;3.92;0.90;;;23.30;58.50;;;;;;5013258;28;20121;-87
2022/09/09 12:04:16;;;;;;;4.32;1.02;;;23.40;57.70;;;;;;5015423;28;20022;-87
2022/09/09 12:06:50;;;;;;;4.07;0.75;;;23.40;57.60;;;;;;5015283;28;20025;-85
2022/09/09 12:09:23;;;;;;;2.30;0.80;;;23.40;57.60;;;;;;5020201;28;20018;-87
2022/09/09 12:11:49;;;;;;;4.95;1.15;;;23.40;57.30;;;;;;5015692;28;20084;-87
2022/09/09 12:14:36;;;;;;;3.45;0.68;;;23.50;58.30;;;;;;5015629;28;20022;-88
2022/09/09 12:17:22;;;;;;;1.60;0.65;;;23.40;56.70;;;;;;4988218;28;20399;-87
2022/09/09 12:20:02;;;;;;;4.32;0.85;;;23.40;56.60;;;;;;4996654;28;20134;-87
2022/09/09 12:22:40;;;;;;;1.65;0.50;;;23.40;56.10;;;;;;4996562;28;20037;-89
2022/09/09 12:25:22;;;;;;;2.30;0.47;;;23.30;56.60;;;;;;4995367;28;20025;-83
2022/09/09 12:28:06;;;;;;;3.38;0.73;;;23.30;56.60;;;;;;5012349;28;20026;-84
2022/09/09 12:30:41;;;;;;;2.50;1.00;;;23.30;56.50;;;;;;4997330;28;20026;-84
2022/09/09 12:33:17;;;;;;;3.03;0.90;;;23.30;57.80;;;;;;5012500;28;20054;-85
2022/09/09 12:35:44;;;;;;;3.78;0.65;;;23.20;56.90;;;;;;5014141;28;20533;-84
2022/09/09 12:38:19;;;;;;;5.60;1.15;;;23.20;56.20;;;;;;5013566;28;20037;-85
2022/09/09 12:40:54;;;;;;;1.70;0.60;;;23.20;57.70;;;;;;4997283;28;20030;-85
2022/09/09 12:43:23;;;;;;;3.22;0.80;;;23.10;57.60;;;;;;4997311;28;20064;-84
2022/09/09 12:45:57;;;;;;;3.67;0.57;;;23.20;57.60;;;;;;4994767;28;20038;-84
2022/09/09 12:48:28;;;;;;;4.97;0.80;;;23.30;57.80;;;;;;5011981;28;20034;-85
2022/09/09 12:50:55;;;;;;;3.72;0.70;;;23.40;58.30;;;;;;5012716;28;20061;-85
2022/09/09 12:53:34;;;;;;;2.65;0.73;;;23.70;57.80;;;;;;4996136;28;20118;-85
2022/09/09 12:56:18;;;;;;;3.88;0.93;;;23.80;57.30;;;;;;4997142;28;20058;-85
2022/09/09 12:58:49;;;;;;;2.45;0.70;;;23.90;57.50;;;;;;4995033;28;20394;-85
2022/09/09 13:01:28;;;;;;;2.60;0.65;;;24.00;55.80;;;;;;4996965;28;20026;-85
2022/09/09 13:03:54;;;;;;;4.00;0.77;;;24.20;55.60;;;;;;4994905;28;20057;-85
2022/09/09 13:06:31;;;;;;;5.78;1.05;;;24.30;55.70;;;;;;4996770;28;20026;-83
2022/09/09 13:09:00;;;;;;;2.72;0.75;;;24.40;55.20;;;;;;4997122;28;20031;-83
2022/09/09 13:11:39;;;;;;;5.15;0.82;;;24.30;55.00;;;;;;4999975;28;20025;-85
2022/09/09 13:14:06;;;;;;;1.75;0.73;;;24.30;54.80;;;;;;4996355;28;20026;-85
2022/09/09 13:16:35;;;;;;;5.53;0.82;;;24.20;54.20;;;;;;4995423;28;20446;-84
2022/09/09 13:19:07;;;;;;;3.63;0.80;;;24.20;55.50;;;;;;4979333;28;20088;-84
2022/09/09 13:21:38;;;;;;;1.83;0.47;;;24.00;55.50;;;;;;4997384;28;20068;-85
2022/09/09 13:24:22;;;;;;;5.40;1.05;;;23.90;56.50;;;;;;4996246;28;20057;-84